sensor_id;sensor_type;location;lat;lon;timestamp;pressure;altitude;pressure_sealevel;temperature;humidity
62548;BME280;48602;45.192;5.722;2022-09-17T00:01:55;98833.56;;;16.42;65.34
62548;BME280;48602;45.192;5.722;2022-09-17T00:04:20;98831.75;;;16.43;65.31
62548;BME280;48602;45.192;5.722;2022-09-17T00:06:45;98845.91;;;16.44;65.15
62548;BME280;48602;45.192;5.722;2022-09-17T00:09:11;98857.66;;;16.41;64.75
62548;BME280;48602;45.192;5.722;2022-09-17T00:11:40;98847.84;;;16.42;64.95
62548;BME280;48602;45.192;5.722;2022-09-17T00:14:07;98846.34;;;16.37;65.00
62548;BME280;48602;45.192;5.722;2022-09-17T00:16:38;98854.63;;;16.33;64.94
62548;BME280;48602;45.192;5.722;2022-09-17T00:19:05;98852.94;;;16.32;65.05
62548;BME280;48602;45.192;5.722;2022-09-17T00:21:32;98854.09;;;16.28;65.30
62548;BME280;48602;45.192;5.722;2022-09-17T00:23:59;98853.34;;;16.26;64.84
62548;BME280;48602;45.192;5.722;2022-09-17T00:26:26;98851.75;;;16.23;64.88
62548;BME280;48602;45.192;5.722;2022-09-17T00:28:53;98875.91;;;16.20;64.44
62548;BME280;48602;45.192;5.722;2022-09-17T00:31:19;98885.88;;;16.17;64.72
62548;BME280;48602;45.192;5.722;2022-09-17T00:33:44;98849.81;;;16.13;64.66
62548;BME280;48602;45.192;5.722;2022-09-17T00:36:10;98866.09;;;16.08;64.51
62548;BME280;48602;45.192;5.722;2022-09-17T00:38:36;98906.19;;;16.05;64.66
62548;BME280;48602;45.192;5.722;2022-09-17T00:41:03;98859.56;;;15.99;64.06
62548;BME280;48602;45.192;5.722;2022-09-17T00:43:46;98888.06;;;15.97;64.23
62548;BME280;48602;45.192;5.722;2022-09-17T00:46:57;98866.44;;;15.89;64.36
62548;BME280;48602;45.192;5.722;2022-09-17T00:49:28;98870.25;;;15.85;64.13
62548;BME280;48602;45.192;5.722;2022-09-17T00:52:07;98885.75;;;15.79;63.03
62548;BME280;48602;45.192;5.722;2022-09-17T00:54:37;98881.69;;;15.73;63.29
62548;BME280;48602;45.192;5.722;2022-09-17T00:57:03;98913.13;;;15.66;62.84
62548;BME280;48602;45.192;5.722;2022-09-17T00:59:29;98891.78;;;15.54;63.15
62548;BME280;48602;45.192;5.722;2022-09-17T01:01:55;98899.16;;;15.49;63.32
62548;BME280;48602;45.192;5.722;2022-09-17T01:04:23;98919.75;;;15.45;62.71
62548;BME280;48602;45.192;5.722;2022-09-17T01:28:31;98927.06;;;14.85;63.43
62548;BME280;48602;45.192;5.722;2022-09-17T01:31:03;98919.38;;;14.80;63.00
62548;BME280;48602;45.192;5.722;2022-09-17T01:33:42;98943.34;;;14.79;63.71
62548;BME280;48602;45.192;5.722;2022-09-17T01:39:28;98928.94;;;14.69;63.08
62548;BME280;48602;45.192;5.722;2022-09-17T01:47:37;98920.22;;;14.66;62.90
62548;BME280;48602;45.192;5.722;2022-09-17T01:50:08;98935.00;;;14.71;62.58
62548;BME280;48602;45.192;5.722;2022-09-17T01:52:36;98945.91;;;14.66;62.57
62548;BME280;48602;45.192;5.722;2022-09-17T01:55:13;98950.53;;;14.62;62.60
62548;BME280;48602;45.192;5.722;2022-09-17T01:57:47;98954.41;;;14.57;62.81
62548;BME280;48602;45.192;5.722;2022-09-17T02:00:15;98959.97;;;14.52;62.83
62548;BME280;48602;45.192;5.722;2022-09-17T02:05:42;98956.03;;;14.44;63.11
62548;BME280;48602;45.192;5.722;2022-09-17T02:10:48;98946.03;;;14.33;63.32
62548;BME280;48602;45.192;5.722;2022-09-17T02:13:22;98957.59;;;14.32;63.78
62548;BME280;48602;45.192;5.722;2022-09-17T02:15:56;98958.53;;;14.31;63.59
62548;BME280;48602;45.192;5.722;2022-09-17T02:21:10;98956.91;;;14.28;63.60
62548;BME280;48602;45.192;5.722;2022-09-17T02:24:16;98960.66;;;14.24;63.51
62548;BME280;48602;45.192;5.722;2022-09-17T02:27:05;98957.28;;;14.22;63.75
62548;BME280;48602;45.192;5.722;2022-09-17T02:29:36;98961.91;;;14.19;63.23
62548;BME280;48602;45.192;5.722;2022-09-17T02:32:02;98977.97;;;14.16;63.49
62548;BME280;48602;45.192;5.722;2022-09-17T02:34:28;98980.78;;;14.13;63.39
62548;BME280;48602;45.192;5.722;2022-09-17T02:36:55;98984.47;;;14.10;63.55
62548;BME280;48602;45.192;5.722;2022-09-17T02:39:22;98961.63;;;14.08;63.49
62548;BME280;48602;45.192;5.722;2022-09-17T02:44:34;98994.50;;;14.05;63.24
62548;BME280;48602;45.192;5.722;2022-09-17T02:55:22;98991.06;;;14.03;63.47
62548;BME280;48602;45.192;5.722;2022-09-17T03:00:27;98990.13;;;14.04;63.41
62548;BME280;48602;45.192;5.722;2022-09-17T03:03:00;98998.25;;;14.01;63.43
62548;BME280;48602;45.192;5.722;2022-09-17T03:05:29;99000.81;;;14.03;63.32
62548;BME280;48602;45.192;5.722;2022-09-17T03:07:56;98994.91;;;13.97;63.07
62548;BME280;48602;45.192;5.722;2022-09-17T03:10:23;99003.81;;;13.96;63.29
62548;BME280;48602;45.192;5.722;2022-09-17T03:12:48;98984.41;;;13.96;63.08
62548;BME280;48602;45.192;5.722;2022-09-17T03:15:14;98988.84;;;13.95;62.92
62548;BME280;48602;45.192;5.722;2022-09-17T03:17:39;98982.78;;;13.93;63.33
62548;BME280;48602;45.192;5.722;2022-09-17T03:20:05;98987.03;;;13.96;62.71
62548;BME280;48602;45.192;5.722;2022-09-17T03:22:30;98990.63;;;13.95;62.38
62548;BME280;48602;45.192;5.722;2022-09-17T03:24:56;98983.53;;;13.95;62.44
62548;BME280;48602;45.192;5.722;2022-09-17T03:27:21;98982.59;;;13.96;62.32
62548;BME280;48602;45.192;5.722;2022-09-17T03:29:47;98987.81;;;13.98;62.22
62548;BME280;48602;45.192;5.722;2022-09-17T03:32:12;98987.81;;;13.98;61.83
62548;BME280;48602;45.192;5.722;2022-09-17T03:34:37;98978.94;;;13.99;61.85
62548;BME280;48602;45.192;5.722;2022-09-17T03:37:03;98978.75;;;14.02;61.93
62548;BME280;48602;45.192;5.722;2022-09-17T03:39:29;98995.44;;;14.04;61.30
62548;BME280;48602;45.192;5.722;2022-09-17T03:41:54;99015.78;;;14.04;60.99
62548;BME280;48602;45.192;5.722;2022-09-17T03:44:22;99024.59;;;14.04;60.98
62548;BME280;48602;45.192;5.722;2022-09-17T03:46:49;99014.94;;;14.03;61.39
62548;BME280;48602;45.192;5.722;2022-09-17T03:49:14;99010.31;;;14.07;60.45
62548;BME280;48602;45.192;5.722;2022-09-17T03:51:40;99011.91;;;14.09;59.90
62548;BME280;48602;45.192;5.722;2022-09-17T03:54:05;99005.50;;;14.13;60.17
62548;BME280;48602;45.192;5.722;2022-09-17T03:56:31;99011.66;;;14.14;60.57
62548;BME280;48602;45.192;5.722;2022-09-17T03:58:57;99022.19;;;14.15;59.99
62548;BME280;48602;45.192;5.722;2022-09-17T04:01:23;99015.25;;;14.13;60.19
62548;BME280;48602;45.192;5.722;2022-09-17T04:03:49;99002.94;;;14.12;60.33
62548;BME280;48602;45.192;5.722;2022-09-17T04:06:14;99012.69;;;14.11;60.58
62548;BME280;48602;45.192;5.722;2022-09-17T04:08:39;99025.38;;;14.06;60.47
62548;BME280;48602;45.192;5.722;2022-09-17T04:11:05;99023.56;;;14.07;60.38
62548;BME280;48602;45.192;5.722;2022-09-17T04:13:31;99006.13;;;14.03;59.98
62548;BME280;48602;45.192;5.722;2022-09-17T04:15:57;99013.22;;;14.02;60.48
62548;BME280;48602;45.192;5.722;2022-09-17T04:18:22;99000.22;;;13.97;60.40
62548;BME280;48602;45.192;5.722;2022-09-17T04:20:48;99041.94;;;13.94;60.59
62548;BME280;48602;45.192;5.722;2022-09-17T04:23:13;99030.56;;;13.92;60.62
62548;BME280;48602;45.192;5.722;2022-09-17T04:25:38;99019.28;;;13.88;60.71
62548;BME280;48602;45.192;5.722;2022-09-17T04:28:04;99022.09;;;13.85;61.03
62548;BME280;48602;45.192;5.722;2022-09-17T04:30:29;99020.22;;;13.87;61.22
62548;BME280;48602;45.192;5.722;2022-09-17T04:32:55;99026.63;;;13.83;60.84
62548;BME280;48602;45.192;5.722;2022-09-17T04:35:20;99030.22;;;13.82;61.30
62548;BME280;48602;45.192;5.722;2022-09-17T04:37:53;99024.31;;;13.77;61.76
62548;BME280;48602;45.192;5.722;2022-09-17T04:40:19;99042.34;;;13.71;61.93
62548;BME280;48602;45.192;5.722;2022-09-17T04:42:45;99039.94;;;13.66;62.03
62548;BME280;48602;45.192;5.722;2022-09-17T04:45:10;99042.59;;;13.66;61.93
62548;BME280;48602;45.192;5.722;2022-09-17T04:47:39;99051.47;;;13.65;61.27
62548;BME280;48602;45.192;5.722;2022-09-17T04:50:05;99040.19;;;13.61;61.37
62548;BME280;48602;45.192;5.722;2022-09-17T04:52:32;99084.34;;;13.61;61.93
62548;BME280;48602;45.192;5.722;2022-09-17T04:54:57;99042.06;;;13.59;61.91
62548;BME280;48602;45.192;5.722;2022-09-17T04:57:23;99045.81;;;13.55;62.34
62548;BME280;48602;45.192;5.722;2022-09-17T04:59:50;99056.56;;;13.52;62.41
62548;BME280;48602;45.192;5.722;2022-09-17T05:02:15;99059.47;;;13.48;62.51
62548;BME280;48602;45.192;5.722;2022-09-17T05:04:40;99066.47;;;13.49;62.42
62548;BME280;48602;45.192;5.722;2022-09-17T05:07:06;99077.13;;;13.47;62.94
62548;BME280;48602;45.192;5.722;2022-09-17T05:09:31;99076.44;;;13.44;63.04
62548;BME280;48602;45.192;5.722;2022-09-17T05:11:56;99075.94;;;13.37;63.68
62548;BME280;48602;45.192;5.722;2022-09-17T05:14:22;99083.94;;;13.36;63.44
62548;BME280;48602;45.192;5.722;2022-09-17T05:16:47;99097.34;;;13.33;63.85
62548;BME280;48602;45.192;5.722;2022-09-17T05:19:12;99076.38;;;13.28;63.71
62548;BME280;48602;45.192;5.722;2022-09-17T05:21:38;99087.13;;;13.25;64.88
62548;BME280;48602;45.192;5.722;2022-09-17T05:24:03;99062.63;;;13.21;64.52
62548;BME280;48602;45.192;5.722;2022-09-17T05:26:29;99072.34;;;13.21;64.71
62548;BME280;48602;45.192;5.722;2022-09-17T05:28:54;99083.09;;;13.18;64.79
62548;BME280;48602;45.192;5.722;2022-09-17T05:31:20;99081.47;;;13.15;64.67
62548;BME280;48602;45.192;5.722;2022-09-17T05:33:45;99106.19;;;13.14;64.96
62548;BME280;48602;45.192;5.722;2022-09-17T05:36:10;99101.03;;;13.11;65.57
62548;BME280;48602;45.192;5.722;2022-09-17T05:38:36;99101.13;;;13.10;65.63
62548;BME280;48602;45.192;5.722;2022-09-17T05:41:05;99095.16;;;13.06;65.82
62548;BME280;48602;45.192;5.722;2022-09-17T05:43:31;99096.22;;;13.02;65.81
62548;BME280;48602;45.192;5.722;2022-09-17T05:46:01;99099.88;;;13.00;65.82
62548;BME280;48602;45.192;5.722;2022-09-17T05:48:27;99099.88;;;13.00;65.84
62548;BME280;48602;45.192;5.722;2022-09-17T05:50:53;99107.09;;;12.96;66.20
62548;BME280;48602;45.192;5.722;2022-09-17T05:53:19;99108.13;;;12.93;66.09
62548;BME280;48602;45.192;5.722;2022-09-17T05:55:45;99124.78;;;12.96;66.07
62548;BME280;48602;45.192;5.722;2022-09-17T05:58:15;99139.88;;;12.93;67.13
62548;BME280;48602;45.192;5.722;2022-09-17T06:00:41;99125.97;;;12.90;66.68
62548;BME280;48602;45.192;5.722;2022-09-17T06:03:09;99132.25;;;12.87;66.65
62548;BME280;48602;45.192;5.722;2022-09-17T06:05:35;99126.16;;;12.85;66.90
62548;BME280;48602;45.192;5.722;2022-09-17T06:08:00;99136.91;;;12.82;66.80
62548;BME280;48602;45.192;5.722;2022-09-17T06:10:26;99127.25;;;12.81;66.84
62548;BME280;48602;45.192;5.722;2022-09-17T06:12:58;99128.03;;;12.83;66.79
62548;BME280;48602;45.192;5.722;2022-09-17T06:15:25;99135.03;;;12.84;66.79
62548;BME280;48602;45.192;5.722;2022-09-17T06:17:51;99130.59;;;12.85;66.79
62548;BME280;48602;45.192;5.722;2022-09-17T06:20:17;99144.75;;;12.84;66.15
62548;BME280;48602;45.192;5.722;2022-09-17T06:22:43;99144.63;;;12.87;65.96
62548;BME280;48602;45.192;5.722;2022-09-17T06:25:08;99150.78;;;12.87;65.95
62548;BME280;48602;45.192;5.722;2022-09-17T06:27:34;99129.44;;;12.90;65.94
62548;BME280;48602;45.192;5.722;2022-09-17T06:30:00;99149.06;;;12.86;66.10
62548;BME280;48602;45.192;5.722;2022-09-17T06:32:26;99154.34;;;12.86;65.77
62548;BME280;48602;45.192;5.722;2022-09-17T06:34:51;99139.31;;;12.87;65.84
62548;BME280;48602;45.192;5.722;2022-09-17T06:37:18;99139.19;;;12.90;65.26
62548;BME280;48602;45.192;5.722;2022-09-17T06:39:43;99145.22;;;12.92;65.53
62548;BME280;48602;45.192;5.722;2022-09-17T06:42:10;99152.94;;;12.97;64.50
62548;BME280;48602;45.192;5.722;2022-09-17T06:44:35;99149.16;;;13.02;64.08
62548;BME280;48602;45.192;5.722;2022-09-17T06:47:01;99148.84;;;13.08;64.63
62548;BME280;48602;45.192;5.722;2022-09-17T06:49:26;99153.63;;;13.19;63.23
62548;BME280;48602;45.192;5.722;2022-09-17T06:51:52;99168.53;;;13.21;62.97
62548;BME280;48602;45.192;5.722;2022-09-17T06:54:18;99151.38;;;13.28;63.18
62548;BME280;48602;45.192;5.722;2022-09-17T06:56:45;99143.59;;;13.25;63.09
62548;BME280;48602;45.192;5.722;2022-09-17T06:59:11;99169.31;;;13.23;63.00
62548;BME280;48602;45.192;5.722;2022-09-17T07:01:36;99151.94;;;13.18;62.55
62548;BME280;48602;45.192;5.722;2022-09-17T07:04:02;99150.28;;;13.15;63.05
62548;BME280;48602;45.192;5.722;2022-09-17T07:06:27;99166.22;;;13.14;62.91
62548;BME280;48602;45.192;5.722;2022-09-17T07:08:52;99154.75;;;13.13;63.07
62548;BME280;48602;45.192;5.722;2022-09-17T07:11:18;99147.75;;;13.12;63.08
62548;BME280;48602;45.192;5.722;2022-09-17T07:13:43;99145.09;;;13.12;62.98
62548;BME280;48602;45.192;5.722;2022-09-17T07:16:09;99138.03;;;13.13;62.80
62548;BME280;48602;45.192;5.722;2022-09-17T07:18:34;99150.41;;;13.12;62.85
62548;BME280;48602;45.192;5.722;2022-09-17T07:21:02;99162.78;;;13.12;62.82
62548;BME280;48602;45.192;5.722;2022-09-17T07:23:31;99157.38;;;13.15;62.83
62548;BME280;48602;45.192;5.722;2022-09-17T07:26:05;99152.72;;;13.20;62.52
62548;BME280;48602;45.192;5.722;2022-09-17T07:28:31;99139.16;;;13.26;62.21
62548;BME280;48602;45.192;5.722;2022-09-17T07:30:57;99156.59;;;13.30;62.22
62548;BME280;48602;45.192;5.722;2022-09-17T07:33:24;99166.97;;;13.35;61.80
62548;BME280;48602;45.192;5.722;2022-09-17T07:35:58;99140.41;;;13.36;61.96
62548;BME280;48602;45.192;5.722;2022-09-17T07:38:24;99128.47;;;13.45;61.18
62548;BME280;48602;45.192;5.722;2022-09-17T07:41:04;99140.63;;;13.49;61.33
62548;BME280;48602;45.192;5.722;2022-09-17T07:43:32;99129.97;;;13.50;61.20
62548;BME280;48602;45.192;5.722;2022-09-17T07:45:59;99151.28;;;13.47;61.04
62548;BME280;48602;45.192;5.722;2022-09-17T07:48:25;99138.84;;;13.49;61.23
62548;BME280;48602;45.192;5.722;2022-09-17T07:50:51;99155.50;;;13.51;61.19
62548;BME280;48602;45.192;5.722;2022-09-17T07:53:17;99131.25;;;13.59;60.44
62548;BME280;48602;45.192;5.722;2022-09-17T07:55:53;99140.06;;;13.59;60.63
62548;BME280;48602;45.192;5.722;2022-09-17T07:58:23;99121.38;;;13.62;60.27
62548;BME280;48602;45.192;5.722;2022-09-17T08:00:49;99140.75;;;13.63;60.35
62548;BME280;48602;45.192;5.722;2022-09-17T08:03:15;99128.22;;;13.67;60.46
62548;BME280;48602;45.192;5.722;2022-09-17T08:05:40;99113.25;;;13.66;60.10
62548;BME280;48602;45.192;5.722;2022-09-17T08:08:06;99135.31;;;13.66;59.51
62548;BME280;48602;45.192;5.722;2022-09-17T08:10:31;99149.97;;;13.73;59.47
62548;BME280;48602;45.192;5.722;2022-09-17T08:12:57;99111.66;;;13.79;59.47
62548;BME280;48602;45.192;5.722;2022-09-17T08:15:24;99132.63;;;13.83;58.51
62548;BME280;48602;45.192;5.722;2022-09-17T08:17:50;99125.47;;;13.85;58.84
62548;BME280;48602;45.192;5.722;2022-09-17T08:20:15;99122.81;;;13.85;58.34
62548;BME280;48602;45.192;5.722;2022-09-17T08:22:42;99148.28;;;13.88;58.42
62548;BME280;48602;45.192;5.722;2022-09-17T08:25:08;99148.22;;;13.89;58.32
62548;BME280;48602;45.192;5.722;2022-09-17T08:27:34;99150.44;;;13.97;57.86
62548;BME280;48602;45.192;5.722;2022-09-17T08:30:00;99133.00;;;14.09;57.81
62548;BME280;48602;45.192;5.722;2022-09-17T08:32:28;99149.53;;;14.14;58.05
62548;BME280;48602;45.192;5.722;2022-09-17T08:34:54;99162.41;;;14.21;57.91
62548;BME280;48602;45.192;5.722;2022-09-17T08:37:19;99160.94;;;14.31;57.12
62548;BME280;48602;45.192;5.722;2022-09-17T08:39:45;99142.81;;;14.40;56.56
62548;BME280;48602;45.192;5.722;2022-09-17T08:44:44;99144.97;;;14.49;56.20
62548;BME280;48602;45.192;5.722;2022-09-17T08:50:01;99154.75;;;14.64;55.06
62548;BME280;48602;45.192;5.722;2022-09-17T09:06:37;99148.50;;;15.11;52.92
62548;BME280;48602;45.192;5.722;2022-09-17T09:09:11;99135.22;;;15.11;52.75
62548;BME280;48602;45.192;5.722;2022-09-17T09:11:40;99142.44;;;15.09;52.88
62548;BME280;48602;45.192;5.722;2022-09-17T09:14:20;99146.44;;;15.16;51.66
62548;BME280;48602;45.192;5.722;2022-09-17T09:16:48;99138.69;;;15.27;51.79
62548;BME280;48602;45.192;5.722;2022-09-17T09:19:29;99133.53;;;15.40;52.67
62548;BME280;48602;45.192;5.722;2022-09-17T09:22:03;99146.78;;;15.55;51.59
62548;BME280;48602;45.192;5.722;2022-09-17T09:24:46;99143.19;;;15.56;51.24
62548;BME280;48602;45.192;5.722;2022-09-17T09:27:31;99135.38;;;15.53;51.75
62548;BME280;48602;45.192;5.722;2022-09-17T09:30:10;99136.53;;;15.63;51.20
62548;BME280;48602;45.192;5.722;2022-09-17T09:32:39;99152.59;;;15.62;51.23
62548;BME280;48602;45.192;5.722;2022-09-17T09:35:23;99143.47;;;15.66;49.29
62548;BME280;48602;45.192;5.722;2022-09-17T09:43:43;99117.41;;;15.73;48.91
62548;BME280;48602;45.192;5.722;2022-09-17T09:56:56;99134.03;;;15.90;47.21
62548;BME280;48602;45.192;5.722;2022-09-17T09:59:23;99104.56;;;15.93;46.92
62548;BME280;48602;45.192;5.722;2022-09-17T10:01:49;99106.84;;;15.99;46.87
62548;BME280;48602;45.192;5.722;2022-09-17T10:04:21;99121.75;;;16.02;46.60
62548;BME280;48602;45.192;5.722;2022-09-17T10:06:48;99143.91;;;16.02;45.49
62548;BME280;48602;45.192;5.722;2022-09-17T10:09:16;99092.41;;;16.03;45.84
62548;BME280;48602;45.192;5.722;2022-09-17T10:11:58;99132.41;;;16.02;46.94
62548;BME280;48602;45.192;5.722;2022-09-17T10:14:26;99095.09;;;16.03;46.33
62548;BME280;48602;45.192;5.722;2022-09-17T10:17:10;99103.63;;;16.09;46.47
62548;BME280;48602;45.192;5.722;2022-09-17T10:19:39;99123.19;;;16.08;46.00
62548;BME280;48602;45.192;5.722;2022-09-17T10:22:29;99102.78;;;16.08;45.90
62548;BME280;48602;45.192;5.722;2022-09-17T10:24:57;99101.06;;;16.07;46.21
62548;BME280;48602;45.192;5.722;2022-09-17T10:27:24;99105.03;;;16.14;46.03
62548;BME280;48602;45.192;5.722;2022-09-17T10:32:22;99085.75;;;16.25;46.66
62548;BME280;48602;45.192;5.722;2022-09-17T10:35:13;99097.59;;;16.33;44.76
62548;BME280;48602;45.192;5.722;2022-09-17T10:37:50;99108.63;;;16.42;45.07
62548;BME280;48602;45.192;5.722;2022-09-17T10:42:47;99137.31;;;16.36;44.73
62548;BME280;48602;45.192;5.722;2022-09-17T10:45:28;99127.34;;;16.40;45.42
62548;BME280;48602;45.192;5.722;2022-09-17T10:47:59;99125.31;;;16.44;45.74
62548;BME280;48602;45.192;5.722;2022-09-17T10:50:27;99104.69;;;16.47;46.38
62548;BME280;48602;45.192;5.722;2022-09-17T10:52:56;99135.22;;;16.42;46.01
62548;BME280;48602;45.192;5.722;2022-09-17T11:17:45;99140.63;;;16.26;47.40
62548;BME280;48602;45.192;5.722;2022-09-17T11:20:37;99117.44;;;16.28;48.50
62548;BME280;48602;45.192;5.722;2022-09-17T11:34:16;99157.47;;;16.40;47.80
62548;BME280;48602;45.192;5.722;2022-09-17T11:39:54;99164.09;;;16.48;48.29
62548;BME280;48602;45.192;5.722;2022-09-17T11:42:24;99149.06;;;16.47;48.50
62548;BME280;48602;45.192;5.722;2022-09-17T11:44:59;99154.88;;;16.53;48.65
62548;BME280;48602;45.192;5.722;2022-09-17T11:47:34;99162.47;;;16.45;48.20
62548;BME280;48602;45.192;5.722;2022-09-17T11:50:15;99169.69;;;16.43;48.75
62548;BME280;48602;45.192;5.722;2022-09-17T11:52:59;99145.66;;;16.45;48.31
62548;BME280;48602;45.192;5.722;2022-09-17T11:58:18;99145.47;;;16.48;48.83
62548;BME280;48602;45.192;5.722;2022-09-17T12:00:51;99130.06;;;16.53;48.41
62548;BME280;48602;45.192;5.722;2022-09-17T12:03:42;99179.59;;;16.55;48.40
62548;BME280;48602;45.192;5.722;2022-09-17T12:06:14;99139.94;;;16.51;48.69
62548;BME280;48602;45.192;5.722;2022-09-17T12:09:21;99186.72;;;16.55;48.98
62548;BME280;48602;45.192;5.722;2022-09-17T12:11:52;99152.50;;;16.63;48.56
62548;BME280;48602;45.192;5.722;2022-09-17T12:14:24;99136.34;;;16.66;47.88
62548;BME280;48602;45.192;5.722;2022-09-17T12:16:57;99132.72;;;16.67;47.68
62548;BME280;48602;45.192;5.722;2022-09-17T12:19:34;99130.53;;;16.73;48.34
62548;BME280;48602;45.192;5.722;2022-09-17T12:22:16;99139.81;;;16.81;47.99
62548;BME280;48602;45.192;5.722;2022-09-17T12:24:42;99165.09;;;16.88;47.24
62548;BME280;48602;45.192;5.722;2022-09-17T12:27:16;99123.16;;;16.91;48.29
62548;BME280;48602;45.192;5.722;2022-09-17T12:43:00;99150.63;;;17.31;47.19
62548;BME280;48602;45.192;5.722;2022-09-17T12:54:40;99137.22;;;17.45;46.27
62548;BME280;48602;45.192;5.722;2022-09-17T12:59:39;99126.47;;;17.60;45.36
62548;BME280;48602;45.192;5.722;2022-09-17T13:05:04;99117.97;;;17.80;44.58
62548;BME280;48602;45.192;5.722;2022-09-17T13:10:11;99117.34;;;17.76;45.13
62548;BME280;48602;45.192;5.722;2022-09-17T13:13:19;99118.63;;;17.71;45.56
62548;BME280;48602;45.192;5.722;2022-09-17T13:18:59;99111.03;;;17.77;45.88
62548;BME280;48602;45.192;5.722;2022-09-17T13:21:41;99126.53;;;17.85;44.63
62548;BME280;48602;45.192;5.722;2022-09-17T13:24:18;99143.81;;;17.92;44.40
62548;BME280;48602;45.192;5.722;2022-09-17T13:26:45;99133.16;;;17.92;43.90
62548;BME280;48602;45.192;5.722;2022-09-17T13:29:11;99112.97;;;17.88;43.87
62548;BME280;48602;45.192;5.722;2022-09-17T13:36:47;99115.66;;;17.88;44.80
62548;BME280;48602;45.192;5.722;2022-09-17T13:39:45;99112.22;;;17.99;44.03
62548;BME280;48602;45.192;5.722;2022-09-17T13:42:23;99122.13;;;17.97;44.50
62548;BME280;48602;45.192;5.722;2022-09-17T13:45:00;99126.72;;;17.95;44.40
62548;BME280;48602;45.192;5.722;2022-09-17T13:47:32;99105.72;;;18.03;44.13
62548;BME280;48602;45.192;5.722;2022-09-17T13:50:11;99112.72;;;18.17;44.32
62548;BME280;48602;45.192;5.722;2022-09-17T13:52:49;99124.94;;;18.44;43.71
62548;BME280;48602;45.192;5.722;2022-09-17T13:58:00;99129.44;;;18.80;42.79
62548;BME280;48602;45.192;5.722;2022-09-17T14:18:58;99115.34;;;19.61;40.71
62548;BME280;48602;45.192;5.722;2022-09-17T14:21:29;99111.34;;;19.67;41.27
62548;BME280;48602;45.192;5.722;2022-09-17T14:23:57;99152.31;;;19.67;40.87
62548;BME280;48602;45.192;5.722;2022-09-17T14:26:49;99115.72;;;19.57;41.20
62548;BME280;48602;45.192;5.722;2022-09-17T14:31:49;99130.91;;;19.56;41.02
62548;BME280;48602;45.192;5.722;2022-09-17T14:34:20;99119.25;;;19.57;40.43
62548;BME280;48602;45.192;5.722;2022-09-17T14:36:47;99118.00;;;19.61;40.86
62548;BME280;48602;45.192;5.722;2022-09-17T14:39:20;99122.28;;;19.64;40.53
62548;BME280;48602;45.192;5.722;2022-09-17T14:41:46;99141.09;;;19.62;41.01
62548;BME280;48602;45.192;5.722;2022-09-17T14:44:18;99139.16;;;19.64;40.65
62548;BME280;48602;45.192;5.722;2022-09-17T14:46:59;99191.47;;;19.68;41.15
62548;BME280;48602;45.192;5.722;2022-09-17T14:49:28;99151.22;;;19.59;40.73
62548;BME280;48602;45.192;5.722;2022-09-17T14:51:56;99133.50;;;19.45;41.41
62548;BME280;48602;45.192;5.722;2022-09-17T15:02:39;99146.63;;;19.48;42.14
62548;BME280;48602;45.192;5.722;2022-09-17T15:05:28;99140.31;;;19.49;41.65
62548;BME280;48602;45.192;5.722;2022-09-17T15:10:37;99173.06;;;19.52;41.27
62548;BME280;48602;45.192;5.722;2022-09-17T15:13:17;99141.28;;;19.48;41.52
62548;BME280;48602;45.192;5.722;2022-09-17T15:16:24;99145.66;;;19.49;41.51
62548;BME280;48602;45.192;5.722;2022-09-17T15:18:55;99140.03;;;19.65;40.75
62548;BME280;48602;45.192;5.722;2022-09-17T15:23:51;99158.63;;;19.55;40.78
62548;BME280;48602;45.192;5.722;2022-09-17T15:26:21;99186.00;;;19.46;41.08
62548;BME280;48602;45.192;5.722;2022-09-17T15:28:49;99157.06;;;19.40;41.23
62548;BME280;48602;45.192;5.722;2022-09-17T15:31:17;99173.56;;;19.34;41.38
62548;BME280;48602;45.192;5.722;2022-09-17T15:33:44;99182.88;;;19.28;41.59
62548;BME280;48602;45.192;5.722;2022-09-17T15:36:20;99184.84;;;19.26;41.45
62548;BME280;48602;45.192;5.722;2022-09-17T15:38:46;99205.38;;;19.26;41.03
62548;BME280;48602;45.192;5.722;2022-09-17T15:41:25;99175.56;;;19.19;41.33
62548;BME280;48602;45.192;5.722;2022-09-17T15:43:51;99183.25;;;19.24;42.05
62548;BME280;48602;45.192;5.722;2022-09-17T15:46:30;99171.59;;;19.25;41.64
62548;BME280;48602;45.192;5.722;2022-09-17T15:49:00;99203.56;;;19.26;42.12
62548;BME280;48602;45.192;5.722;2022-09-17T15:51:32;99163.06;;;19.20;41.37
62548;BME280;48602;45.192;5.722;2022-09-17T15:54:00;99195.34;;;19.16;41.79
62548;BME280;48602;45.192;5.722;2022-09-17T15:56:35;99178.56;;;19.14;41.50
62548;BME280;48602;45.192;5.722;2022-09-17T15:59:04;99182.09;;;19.15;41.70
62548;BME280;48602;45.192;5.722;2022-09-17T16:08:59;99203.59;;;19.13;41.75
62548;BME280;48602;45.192;5.722;2022-09-17T16:11:26;99205.31;;;19.14;42.00
62548;BME280;48602;45.192;5.722;2022-09-17T16:13:54;99245.75;;;19.10;41.07
62548;BME280;48602;45.192;5.722;2022-09-17T16:16:36;99210.69;;;19.02;40.77
62548;BME280;48602;45.192;5.722;2022-09-17T16:19:03;99200.34;;;18.97;41.46
62548;BME280;48602;45.192;5.722;2022-09-17T16:21:30;99191.69;;;18.94;41.77
62548;BME280;48602;45.192;5.722;2022-09-17T16:23:56;99209.56;;;18.93;41.87
62548;BME280;48602;45.192;5.722;2022-09-17T16:26:26;99202.91;;;18.99;41.91
62548;BME280;48602;45.192;5.722;2022-09-17T16:28:57;99193.66;;;18.92;41.88
62548;BME280;48602;45.192;5.722;2022-09-17T16:31:24;99198.03;;;18.80;41.68
62548;BME280;48602;45.192;5.722;2022-09-17T16:33:50;99195.00;;;18.61;42.39
62548;BME280;48602;45.192;5.722;2022-09-17T16:36:16;99208.22;;;18.49;42.29
62548;BME280;48602;45.192;5.722;2022-09-17T16:38:42;99209.97;;;18.25;42.18
62548;BME280;48602;45.192;5.722;2022-09-17T16:41:07;99194.50;;;17.92;43.00
62548;BME280;48602;45.192;5.722;2022-09-17T16:43:33;99204.38;;;17.65;44.20
62548;BME280;48602;45.192;5.722;2022-09-17T16:46:16;99209.19;;;17.45;44.34
62548;BME280;48602;45.192;5.722;2022-09-17T16:48:42;99204.13;;;17.28;44.67
62548;BME280;48602;45.192;5.722;2022-09-17T16:51:11;99201.53;;;17.14;44.89